createdAt,value
2023-08-07T00:00:06.652Z,2.35
2023-08-07T00:02:40.301Z,3.03
2023-08-07T00:05:11.665Z,3.33
2023-08-07T00:07:44.783Z,3.97
2023-08-07T00:10:15.767Z,3.42
2023-08-07T00:12:47.034Z,3.63
2023-08-07T00:15:17.812Z,2.15
2023-08-07T00:17:48.599Z,1.83
2023-08-07T00:20:19.155Z,5.43
2023-08-07T00:22:52.362Z,2.13
2023-08-07T00:25:23.746Z,2.90
2023-08-07T00:27:54.308Z,2.28
2023-08-07T00:30:25.013Z,2.03
2023-08-07T00:32:56.445Z,1.60
2023-08-07T00:35:27.105Z,4.40
2023-08-07T00:38:00.358Z,2.85
2023-08-07T00:40:32.260Z,3.85
2023-08-07T00:43:02.779Z,1.95
2023-08-07T00:45:33.420Z,1.85
2023-08-07T00:48:04.118Z,2.65
2023-08-07T00:50:46.557Z,1.88
2023-08-07T00:53:20.934Z,2.05
2023-08-07T00:55:51.907Z,2.33
2023-08-07T00:58:23.231Z,2.08
2023-08-07T01:00:54.110Z,2.65
2023-08-07T01:05:55.718Z,5.97
2023-08-07T01:08:29.674Z,2.70
2023-08-07T01:11:19.928Z,2.30
2023-08-07T01:14:00.086Z,2.53
2023-08-07T01:16:48.724Z,2.30
2023-08-07T01:19:29.433Z,2.75
2023-08-07T01:22:12.877Z,3.15
2023-08-07T01:24:48.591Z,2.55
2023-08-07T01:27:36.327Z,3.03
2023-08-07T01:30:21.037Z,2.22
2023-08-07T01:33:04.161Z,5.90
2023-08-07T01:35:40.662Z,2.60
2023-08-07T01:38:16.724Z,2.40
2023-08-07T01:40:49.007Z,3.05
2023-08-07T01:43:21.587Z,3.42
2023-08-07T01:45:52.617Z,5.10
2023-08-07T01:48:25.868Z,4.13
2023-08-07T01:50:57.895Z,4.40
2023-08-07T01:56:01.341Z,2.47
2023-08-07T02:01:02.367Z,5.20
2023-08-07T02:03:33.558Z,4.38
2023-08-07T02:06:04.920Z,4.07
2023-08-07T02:11:08.623Z,4.55
2023-08-07T02:13:40.386Z,4.20
2023-08-07T02:16:08.392Z,4.18
2023-08-07T02:18:39.156Z,2.75
2023-08-07T02:21:10.607Z,4.22
2023-08-07T02:23:44.222Z,5.38
2023-08-07T02:26:15.938Z,2.92
2023-08-07T02:28:47.062Z,2.90
2023-08-07T02:31:18.055Z,3.80
2023-08-07T02:33:48.684Z,4.78
2023-08-07T02:36:19.542Z,6.72
2023-08-07T02:38:54.274Z,4.15
2023-08-07T02:41:25.692Z,6.60
2023-08-07T02:43:58.296Z,3.20
2023-08-07T02:46:29.577Z,3.80
2023-08-07T02:49:00.978Z,4.80
2023-08-07T02:51:31.814Z,5.65
2023-08-07T02:56:37.956Z,4.03
2023-08-07T02:59:09.193Z,5.38
2023-08-07T03:01:39.999Z,5.32
2023-08-07T03:06:41.201Z,9.45
2023-08-07T03:09:15.876Z,3.78
2023-08-07T03:11:47.176Z,5.07
2023-08-07T03:14:17.708Z,4.57
2023-08-07T03:16:49.781Z,6.00
2023-08-07T03:19:22.870Z,4.72
2023-08-07T03:21:54.521Z,4.30
2023-08-07T03:24:27.819Z,6.22
2023-08-07T03:26:58.854Z,7.38
2023-08-07T03:29:30.280Z,8.27
2023-08-07T03:32:01.658Z,6.35
2023-08-07T03:34:33.385Z,3.55
2023-08-07T03:37:05.207Z,6.47
2023-08-07T03:39:38.919Z,5.15
2023-08-07T03:42:10.405Z,8.27
2023-08-07T03:44:42.429Z,5.35
2023-08-07T03:47:13.134Z,4.30
2023-08-07T03:49:44.013Z,5.25
2023-08-07T03:52:15.352Z,4.57
2023-08-07T03:54:49.106Z,5.82
2023-08-07T03:57:21.002Z,6.43
2023-08-07T03:59:55.583Z,3.92
2023-08-07T04:02:26.757Z,7.97
2023-08-07T04:04:57.776Z,7.80
2023-08-07T04:07:28.484Z,7.03
2023-08-07T04:10:02.041Z,6.70
2023-08-07T04:12:32.794Z,4.95
2023-08-07T04:15:06.216Z,5.63
2023-08-07T04:17:37.859Z,6.28
2023-08-07T04:20:11.642Z,5.82
2023-08-07T04:22:46.154Z,4.38
2023-08-07T04:25:20.411Z,8.10
2023-08-07T04:27:51.052Z,9.90
2023-08-07T04:30:21.855Z,5.90
2023-08-07T04:35:23.668Z,5.97
2023-08-07T04:37:54.855Z,5.93
2023-08-07T04:40:28.788Z,3.92
2023-08-07T04:43:00.390Z,5.43
2023-08-07T04:45:31.248Z,4.57
2023-08-07T04:50:32.013Z,4.72
2023-08-07T04:53:02.548Z,5.45
2023-08-07T04:55:36.111Z,5.50
2023-08-07T04:58:06.861Z,3.05
2023-08-07T05:00:38.079Z,3.47
2023-08-07T05:03:09.017Z,5.05
2023-08-07T05:05:39.939Z,4.93
2023-08-07T05:08:10.416Z,5.65
2023-08-07T05:10:46.732Z,4.72
2023-08-07T05:13:17.273Z,5.28
2023-08-07T05:15:47.809Z,6.72
2023-08-07T05:18:18.348Z,5.32
2023-08-07T05:20:48.911Z,3.58
2023-08-07T05:23:19.436Z,4.07
2023-08-07T05:25:53.004Z,4.50
2023-08-07T05:28:23.564Z,5.07
2023-08-07T05:30:54.136Z,4.25
2023-08-07T05:33:24.759Z,4.90
2023-08-07T05:35:56.801Z,4.15
2023-08-07T05:38:27.479Z,5.75
2023-08-07T05:41:00.564Z,4.88
2023-08-07T05:43:31.093Z,3.78
2023-08-07T05:46:01.691Z,5.97
2023-08-07T05:48:32.289Z,3.45
2023-08-07T05:51:02.794Z,4.93
2023-08-07T05:53:33.436Z,3.80
2023-08-07T05:56:07.557Z,2.92
2023-08-07T05:58:38.079Z,4.22
2023-08-07T06:01:09.246Z,2.70
2023-08-07T06:03:39.808Z,2.97
2023-08-07T06:06:10.380Z,5.30
2023-08-07T06:08:41.176Z,3.10
2023-08-07T06:11:14.336Z,3.50
2023-08-07T06:13:45.308Z,4.22
2023-08-07T06:16:16.050Z,2.15
2023-08-07T06:18:47.130Z,4.22
2023-08-07T06:21:17.679Z,3.00
2023-08-07T06:23:48.342Z,4.30
2023-08-07T06:26:21.496Z,3.58
2023-08-07T06:28:52.083Z,3.63
2023-08-07T06:31:22.789Z,2.55
2023-08-07T06:33:54.413Z,2.08
2023-08-07T06:36:24.872Z,4.20
2023-08-07T06:38:55.445Z,3.78
2023-08-07T06:41:28.562Z,1.75
2023-08-07T06:43:59.073Z,3.15
2023-08-07T06:46:29.809Z,2.05
2023-08-07T06:49:00.351Z,2.85
2023-08-07T06:51:30.885Z,2.88
2023-08-07T06:54:01.407Z,3.05
2023-08-07T06:56:34.614Z,2.22
2023-08-07T06:59:05.563Z,2.60
2023-08-07T07:01:36.269Z,2.00
2023-08-07T07:04:06.957Z,3.47
2023-08-07T07:06:38.145Z,4.45
2023-08-07T07:09:08.977Z,3.97
2023-08-07T07:14:12.522Z,2.35
2023-08-07T07:16:43.558Z,2.25
2023-08-07T07:19:14.492Z,3.25
2023-08-07T07:24:15.174Z,2.58
2023-08-07T07:26:48.332Z,4.07
2023-08-07T07:29:20.850Z,2.40
2023-08-07T07:31:51.457Z,4.80
2023-08-07T07:34:22.182Z,2.97
2023-08-07T07:36:54.980Z,5.57
2023-08-07T07:39:25.631Z,3.20
2023-08-07T07:41:58.988Z,3.05
2023-08-07T07:44:30.319Z,2.63
2023-08-07T07:47:01.032Z,4.90
2023-08-07T07:49:31.916Z,3.75
2023-08-07T07:54:33.171Z,2.88
2023-08-07T07:57:06.458Z,2.92
2023-08-07T07:59:36.995Z,1.95
2023-08-07T08:02:08.091Z,3.95
2023-08-07T08:04:39.044Z,4.40
2023-08-07T08:07:10.259Z,3.25
2023-08-07T08:09:40.779Z,2.17
2023-08-07T08:12:14.609Z,2.63
2023-08-07T08:14:55.826Z,2.80
2023-08-07T08:17:27.624Z,2.40
2023-08-07T08:19:58.250Z,2.47
2023-08-07T08:22:28.886Z,3.08
2023-08-07T08:24:59.395Z,4.55
2023-08-07T08:27:32.555Z,2.80
2023-08-07T08:30:03.072Z,2.60
2023-08-07T08:32:33.656Z,3.58
2023-08-07T08:35:04.572Z,3.38
2023-08-07T08:37:35.070Z,3.58
2023-08-07T08:40:07.853Z,2.63
2023-08-07T08:42:43.929Z,3.38
2023-08-07T08:45:16.400Z,2.38
2023-08-07T08:47:48.854Z,2.40
2023-08-07T08:50:19.650Z,2.08
2023-08-07T08:52:50.352Z,2.58
2023-08-07T08:55:22.242Z,2.63
2023-08-07T08:57:56.121Z,3.33
2023-08-07T09:00:28.801Z,1.63
2023-08-07T09:03:00.189Z,3.28
2023-08-07T09:05:32.384Z,2.70
2023-08-07T09:08:04.826Z,2.40
2023-08-07T09:10:36.505Z,2.17
2023-08-07T09:13:15.250Z,2.75
2023-08-07T09:15:51.950Z,2.25
2023-08-07T09:18:23.168Z,3.15
2023-08-07T09:20:54.059Z,3.40
2023-08-07T09:26:04.141Z,4.27
2023-08-07T09:28:37.783Z,2.72
2023-08-07T09:31:11.544Z,5.78
2023-08-07T09:33:43.719Z,2.60
2023-08-07T09:36:14.259Z,3.53
2023-08-07T09:38:44.830Z,4.03
2023-08-07T09:41:15.792Z,2.50
2023-08-07T09:43:49.071Z,2.75
2023-08-07T09:46:22.770Z,4.07
2023-08-07T09:48:53.385Z,2.47
2023-08-07T09:51:23.852Z,2.95
2023-08-07T09:53:54.360Z,2.13
2023-08-07T09:56:24.961Z,3.00
2023-08-07T09:58:58.073Z,1.85
2023-08-07T10:01:30.894Z,3.85
2023-08-07T10:04:02.005Z,3.13
2023-08-07T10:06:32.593Z,3.15
2023-08-07T10:09:05.388Z,2.70
2023-08-07T10:11:36.470Z,4.25
2023-08-07T10:14:10.138Z,4.05
2023-08-07T10:16:43.019Z,3.55
2023-08-07T10:19:14.303Z,2.13
2023-08-07T10:21:45.442Z,2.30
2023-08-07T10:24:16.336Z,3.33
2023-08-07T10:29:25.290Z,3.20
2023-08-07T10:31:57.095Z,2.30
2023-08-07T10:34:27.644Z,2.08
2023-08-07T10:36:58.546Z,2.22
2023-08-07T10:39:29.371Z,2.33
2023-08-07T10:42:00.086Z,2.13
2023-08-07T10:47:05.821Z,2.60
2023-08-07T10:49:38.851Z,3.17
2023-08-07T10:52:17.898Z,5.95
2023-08-07T10:54:52.015Z,1.95
2023-08-07T10:57:24.415Z,2.40
2023-08-07T11:00:10.324Z,2.92
2023-08-07T11:02:43.636Z,2.83
2023-08-07T11:05:14.670Z,2.45
2023-08-07T11:07:45.961Z,15.75
2023-08-07T11:10:19.413Z,3.92
2023-08-07T11:12:50.026Z,2.92
2023-08-07T11:15:23.675Z,1.70
2023-08-07T11:17:54.300Z,1.67
2023-08-07T11:20:24.888Z,1.92
2023-08-07T11:22:55.398Z,1.80
2023-08-07T11:25:25.931Z,1.50
2023-08-07T11:27:56.462Z,1.77
2023-08-07T11:30:29.790Z,2.67
2023-08-07T11:33:01.847Z,2.92
2023-08-07T11:35:33.262Z,4.57
2023-08-07T11:38:03.845Z,2.50
2023-08-07T11:40:34.357Z,2.92
2023-08-07T11:43:05.722Z,2.60
2023-08-07T11:45:39.676Z,1.77
2023-08-07T11:48:10.290Z,1.90
2023-08-07T11:50:41.832Z,2.42
2023-08-07T11:53:12.535Z,2.50
2023-08-07T11:58:21.577Z,2.90
2023-08-07T12:03:31.966Z,1.30
2023-08-07T12:06:06.650Z,1.58
2023-08-07T12:08:38.391Z,1.90
2023-08-07T12:11:11.741Z,2.50
2023-08-07T12:13:43.710Z,1.80
2023-08-07T12:16:19.891Z,1.42
2023-08-07T12:18:52.213Z,3.53
2023-08-07T12:21:26.231Z,2.45
2023-08-07T12:24:00.138Z,2.22
2023-08-07T12:26:30.679Z,1.40
2023-08-07T12:29:01.164Z,1.70
2023-08-07T12:31:34.391Z,1.08
2023-08-07T12:36:38.438Z,2.90
2023-08-07T12:44:13.860Z,5.13
2023-08-07T12:46:47.034Z,1.38
2023-08-07T12:49:17.597Z,1.45
2023-08-07T12:51:50.053Z,1.90
2023-08-07T12:54:20.538Z,4.05
2023-08-07T12:56:51.069Z,1.40
2023-08-07T12:59:21.627Z,3.95
2023-08-07T13:01:54.749Z,5.90
2023-08-07T13:04:25.270Z,4.55
2023-08-07T13:06:56.260Z,2.10
2023-08-07T13:09:27.256Z,3.50
2023-08-07T13:11:57.731Z,1.67
2023-08-07T13:14:28.311Z,1.42
2023-08-07T13:17:01.659Z,4.75
2023-08-07T13:19:32.410Z,1.02
2023-08-07T13:22:02.967Z,1.88
2023-08-07T13:24:33.442Z,1.45
2023-08-07T13:27:04.759Z,0.88
2023-08-07T13:29:35.904Z,1.42
2023-08-07T13:32:10.853Z,1.58
2023-08-07T13:34:41.767Z,3.40
2023-08-07T13:37:12.250Z,2.72
2023-08-07T13:39:42.746Z,2.17
2023-08-07T13:42:13.727Z,1.45
2023-08-07T13:44:45.337Z,1.73
2023-08-07T13:47:19.314Z,2.83
2023-08-07T13:49:49.797Z,1.75
2023-08-07T13:52:20.360Z,1.65
2023-08-07T13:54:50.967Z,2.35
2023-08-07T13:57:21.571Z,5.55
2023-08-07T13:59:52.093Z,1.02
2023-08-07T14:02:25.311Z,3.10
2023-08-07T14:04:55.875Z,2.58
2023-08-07T14:07:26.339Z,3.20
2023-08-07T14:09:57.762Z,3.88
2023-08-07T14:12:28.425Z,1.10
2023-08-07T14:14:58.961Z,1.67
2023-08-07T14:17:32.061Z,5.03
2023-08-07T14:20:02.714Z,3.55
2023-08-07T14:22:33.457Z,6.38
2023-08-07T14:27:35.018Z,2.97
2023-08-07T14:30:05.686Z,4.00
2023-08-07T14:32:38.886Z,1.30
2023-08-07T14:35:11.210Z,1.92
2023-08-07T14:37:41.708Z,1.55
2023-08-07T14:40:13.233Z,1.30
2023-08-07T14:42:43.675Z,2.20
2023-08-07T14:45:17.228Z,3.30
2023-08-07T14:47:50.481Z,3.00
2023-08-07T14:50:21.374Z,1.75
2023-08-07T14:55:22.150Z,4.90
2023-08-07T14:57:52.757Z,4.90
2023-08-07T15:00:23.856Z,5.75
2023-08-07T15:02:59.064Z,4.03
2023-08-07T15:05:29.675Z,3.03
2023-08-07T15:08:01.220Z,2.78
2023-08-07T15:10:31.873Z,2.25
2023-08-07T15:13:02.638Z,2.50
2023-08-07T15:18:07.326Z,1.70
2023-08-07T15:20:39.237Z,4.63
2023-08-07T15:23:09.734Z,2.92
2023-08-07T15:25:43.498Z,2.47
2023-08-07T15:28:13.979Z,4.25
2023-08-07T15:30:51.294Z,3.63
2023-08-07T15:33:25.281Z,4.55
2023-08-07T15:35:58.646Z,2.15
2023-08-07T15:38:30.663Z,2.63
2023-08-07T15:41:01.267Z,2.13
2023-08-07T15:43:32.006Z,2.25
2023-08-07T15:48:35.478Z,3.53
2023-08-07T15:51:06.466Z,2.10
2023-08-07T15:53:37.056Z,2.20
2023-08-07T15:56:08.715Z,9.00
2023-08-07T15:58:39.386Z,2.78
2023-08-07T16:01:09.983Z,4.00
2023-08-07T16:03:43.200Z,3.45
2023-08-07T16:06:13.784Z,3.97
2023-08-07T16:08:44.476Z,3.50
2023-08-07T16:11:15.056Z,9.68
2023-08-07T16:13:46.881Z,6.68
2023-08-07T16:16:19.042Z,4.22
2023-08-07T16:18:52.635Z,4.85
2023-08-07T16:21:23.207Z,5.80
2023-08-07T16:23:53.903Z,5.65
2023-08-07T16:26:24.493Z,4.72
2023-08-07T16:28:55.058Z,3.22
2023-08-07T16:31:25.683Z,6.93
2023-08-07T16:33:58.840Z,6.22
2023-08-07T16:36:29.401Z,5.53
2023-08-07T16:39:00.052Z,4.07
2023-08-07T16:41:30.761Z,3.85
2023-08-07T16:44:01.264Z,3.08
2023-08-07T16:46:33.673Z,5.28
2023-08-07T16:49:06.966Z,5.57
2023-08-07T16:51:37.508Z,7.88
2023-08-07T16:54:08.161Z,5.57
2023-08-07T16:56:38.761Z,9.55
2023-08-07T16:59:09.289Z,4.75
2023-08-07T17:01:39.872Z,6.05
2023-08-07T17:04:13.122Z,7.90
2023-08-07T17:06:43.761Z,8.52
2023-08-07T17:09:14.448Z,13.52
2023-08-07T17:11:45.010Z,14.98
2023-08-07T17:14:15.739Z,13.23
2023-08-07T17:16:46.349Z,7.70
2023-08-07T17:19:19.538Z,6.95
2023-08-07T17:21:50.046Z,7.93
2023-08-07T17:24:20.596Z,7.68
2023-08-07T17:26:51.226Z,7.57
2023-08-07T17:29:21.760Z,7.65
2023-08-07T17:31:54.893Z,8.48
2023-08-07T17:34:28.101Z,7.78
2023-08-07T17:36:58.803Z,8.68
2023-08-07T17:41:59.829Z,6.82
2023-08-07T17:44:30.347Z,6.57
2023-08-07T17:47:01.192Z,6.50
2023-08-07T17:49:35.323Z,5.68
2023-08-07T17:52:06.062Z,7.90
2023-08-07T17:54:37.405Z,6.80
2023-08-07T17:57:09.688Z,12.88
2023-08-07T17:59:40.311Z,8.88
2023-08-07T18:02:10.960Z,7.88
2023-08-07T18:04:44.333Z,5.15
2023-08-07T18:07:16.051Z,6.55
2023-08-07T18:09:46.583Z,11.80
2023-08-07T18:12:17.167Z,5.22
2023-08-07T18:14:47.794Z,7.85
2023-08-07T18:17:18.518Z,7.25
2023-08-07T18:19:51.623Z,6.47
2023-08-07T18:22:22.386Z,10.60
2023-08-07T18:24:52.878Z,6.35
2023-08-07T18:27:23.828Z,7.18
2023-08-07T18:29:54.504Z,5.57
2023-08-07T18:32:25.121Z,6.78
2023-08-07T18:34:58.334Z,10.27
2023-08-07T18:37:28.957Z,8.55
2023-08-07T18:40:02.023Z,6.03
2023-08-07T18:42:32.568Z,10.18
2023-08-07T18:45:05.596Z,5.75
2023-08-07T18:47:36.169Z,7.68
2023-08-07T18:50:11.683Z,10.65
2023-08-07T18:52:42.261Z,10.88
2023-08-07T18:55:13.271Z,9.27
2023-08-07T18:57:44.662Z,8.77
2023-08-07T19:00:16.406Z,7.90
2023-08-07T19:02:47.228Z,7.40
2023-08-07T19:05:20.386Z,9.02
2023-08-07T19:07:50.960Z,6.55
2023-08-07T19:10:21.764Z,5.60
2023-08-07T19:12:54.567Z,11.40
2023-08-07T19:15:25.492Z,10.38
2023-08-07T19:20:28.971Z,12.85
2023-08-07T19:22:59.533Z,6.63
2023-08-07T19:25:30.010Z,8.20
2023-08-07T19:28:00.575Z,10.15
2023-08-07T19:30:32.157Z,11.32
2023-08-07T19:33:02.954Z,10.38
2023-08-07T19:35:36.733Z,6.63
2023-08-07T19:38:07.907Z,9.63
2023-08-07T19:40:38.537Z,7.93
2023-08-07T19:43:09.078Z,8.48
2023-08-07T19:45:39.510Z,8.05
2023-08-07T19:48:10.561Z,10.40
2023-08-07T19:50:43.743Z,10.57
2023-08-07T19:53:14.399Z,5.45
2023-08-07T19:55:45.043Z,10.95
2023-08-07T19:58:15.629Z,15.25
2023-08-07T20:00:46.179Z,17.85
2023-08-07T20:03:17.708Z,7.85
2023-08-07T20:05:50.910Z,7.35
2023-08-07T20:08:21.541Z,8.05
2023-08-07T20:10:52.203Z,5.55
2023-08-07T20:13:23.752Z,6.28
2023-08-07T20:15:54.348Z,9.02
2023-08-07T20:18:25.307Z,8.52
2023-08-07T20:23:28.758Z,5.65
2023-08-07T20:26:00.784Z,6.65
2023-08-07T20:28:31.352Z,4.95
2023-08-07T20:31:02.101Z,14.52
2023-08-07T20:33:32.717Z,7.82
2023-08-07T20:36:08.784Z,6.75
2023-08-07T20:38:39.497Z,7.65
2023-08-07T20:41:11.804Z,8.63
2023-08-07T20:43:42.881Z,8.07
2023-08-07T20:46:13.504Z,4.72
2023-08-07T20:48:45.327Z,7.30
2023-08-07T20:51:19.750Z,8.38
2023-08-07T20:53:57.727Z,6.70
2023-08-07T20:56:33.388Z,6.43
2023-08-07T20:59:06.634Z,6.13
2023-08-07T21:01:41.306Z,8.57
2023-08-07T21:04:11.906Z,6.32
2023-08-07T21:06:45.466Z,6.65
2023-08-07T21:09:16.548Z,7.88
2023-08-07T21:11:51.722Z,6.53
2023-08-07T21:14:22.336Z,6.50
2023-08-07T21:16:53.031Z,5.78
2023-08-07T21:19:29.792Z,5.25
2023-08-07T21:22:03.341Z,7.68
2023-08-07T21:24:33.844Z,6.13
2023-08-07T21:27:04.354Z,5.00
2023-08-07T21:29:43.042Z,5.30
2023-08-07T21:32:24.233Z,4.43
2023-08-07T21:34:55.211Z,4.50
2023-08-07T21:40:17.225Z,6.88
2023-08-07T21:43:03.802Z,4.90
2023-08-07T21:45:34.576Z,5.07
2023-08-07T21:48:06.627Z,4.35
2023-08-07T21:50:40.182Z,6.15
2023-08-07T21:53:14.772Z,6.90
2023-08-07T21:55:46.698Z,5.13
2023-08-07T21:58:17.276Z,6.38
2023-08-07T22:00:47.746Z,9.15
2023-08-07T22:03:18.356Z,5.35
2023-08-07T22:05:48.851Z,5.93
2023-08-07T22:08:21.923Z,7.40
2023-08-07T22:10:52.473Z,7.00
2023-08-07T22:13:23.105Z,7.20
2023-08-07T22:15:53.534Z,6.15
2023-08-07T22:18:24.003Z,5.97
2023-08-07T22:20:54.429Z,5.28
2023-08-07T22:23:28.010Z,5.70
2023-08-07T22:25:58.458Z,7.28
2023-08-07T22:28:28.990Z,7.07
2023-08-07T22:30:59.428Z,5.82
2023-08-07T22:33:29.963Z,5.82
2023-08-07T22:36:00.495Z,6.03
2023-08-07T22:38:34.145Z,6.55
2023-08-07T22:41:04.574Z,4.13
2023-08-07T22:43:35.077Z,4.45
2023-08-07T22:46:05.685Z,6.68
2023-08-07T22:48:36.181Z,8.65
2023-08-07T22:51:07.300Z,6.95
2023-08-07T22:53:40.397Z,6.53
2023-08-07T22:56:10.853Z,6.88
2023-08-07T22:58:41.302Z,6.22
2023-08-07T23:01:12.205Z,8.57
2023-08-07T23:08:46.904Z,4.72
2023-08-07T23:11:17.355Z,4.45
2023-08-07T23:13:47.829Z,6.05
2023-08-07T23:16:18.719Z,6.00
2023-08-07T23:21:19.905Z,5.22
2023-08-07T23:26:23.131Z,6.65
2023-08-07T23:28:53.584Z,7.47
2023-08-07T23:31:26.349Z,5.70
2023-08-07T23:33:56.822Z,8.68
2023-08-07T23:36:27.388Z,7.82
2023-08-07T23:39:00.469Z,7.90
2023-08-07T23:41:30.869Z,4.63
2023-08-07T23:44:01.341Z,5.97
2023-08-07T23:46:31.801Z,4.32
2023-08-07T23:49:02.265Z,4.95
2023-08-07T23:51:32.683Z,4.50
2023-08-07T23:54:05.762Z,4.10
2023-08-07T23:56:36.245Z,7.28
2023-08-07T23:59:07.027Z,6.43
